Time;durP1;ratioP1;P1;durP2;ratioP2;P2;SDS_P1;SDS_P2;PMS_P1;PMS_P2;Temp;Humidity;BMP_temperature;BMP_pressure;BME280_temperature;BME280_humidity;BME280_pressure;Samples;Min_cycle;Max_cycle;Signal;HPM_P1;HPM_P2
2021/10/17 00:00:07;;;;;;;1.48;1.38;;;15.20;76.20;;;;;;5132461;28;20039;-72
2021/10/17 00:02:33;;;;;;;1.80;1.58;;;15.30;76.90;;;;;;5132867;28;20498;-69
2021/10/17 00:04:59;;;;;;;2.05;1.58;;;15.30;76.20;;;;;;5132700;28;20039;-62
2021/10/17 00:07:24;;;;;;;2.80;1.65;;;15.20;76.20;;;;;;5132785;28;20031;-68
2021/10/17 00:09:50;;;;;;;2.22;1.60;;;15.20;76.10;;;;;;5132566;28;20047;-67
2021/10/17 00:12:16;;;;;;;2.65;1.63;;;15.30;76.20;;;;;;5132598;28;20078;-68
2021/10/17 00:14:43;;;;;;;1.52;1.40;;;15.30;76.20;;;;;;5109905;28;20147;-66
2021/10/17 00:17:09;;;;;;;1.90;1.50;;;15.20;76.10;;;;;;5112092;28;20537;-67
2021/10/17 00:19:34;;;;;;;2.05;1.60;;;15.30;76.20;;;;;;5111968;28;20077;-71
2021/10/17 00:22:00;;;;;;;1.73;1.45;;;15.20;76.80;;;;;;5112325;28;20040;-67
2021/10/17 00:24:26;;;;;;;2.67;1.58;;;15.20;76.10;;;;;;5112073;28;20493;-69
2021/10/17 00:26:52;;;;;;;1.40;1.30;;;15.20;76.20;;;;;;5111605;28;20039;-68
2021/10/17 00:29:17;;;;;;;1.70;1.50;;;15.20;76.10;;;;;;5112184;28;20127;-63
2021/10/17 00:31:43;;;;;;;2.28;1.38;;;15.20;76.10;;;;;;5111844;28;20048;-64
2021/10/17 00:34:09;;;;;;;1.67;1.50;;;15.20;76.10;;;;;;5112186;28;20039;-65
2021/10/17 00:36:35;;;;;;;2.05;1.58;;;15.20;76.20;;;;;;5110411;28;20047;-64
2021/10/17 00:39:01;;;;;;;1.98;1.65;;;15.30;76.20;;;;;;5111989;28;20035;-70
2021/10/17 00:41:31;;;;;;;1.55;1.45;;;15.30;76.20;;;;;;5115200;28;20126;-59
2021/10/17 00:43:57;;;;;;;1.73;1.40;;;15.20;76.10;;;;;;5115561;28;20105;-65
2021/10/17 00:46:23;;;;;;;2.13;1.40;;;15.30;76.30;;;;;;5115574;28;20032;-65
2021/10/17 00:48:49;;;;;;;2.08;1.88;;;15.30;76.20;;;;;;5115989;28;20043;-70
2021/10/17 00:51:15;;;;;;;1.90;1.50;;;15.30;76.20;;;;;;5116029;28;20036;-72
2021/10/17 00:53:42;;;;;;;1.95;1.52;;;15.30;76.20;;;;;;5116251;28;20047;-66
2021/10/17 00:56:08;;;;;;;2.83;1.63;;;15.30;76.20;;;;;;5115667;28;20043;-68
2021/10/17 00:58:34;;;;;;;1.73;1.55;;;15.30;76.20;;;;;;5115708;28;20035;-64
2021/10/17 01:01:00;;;;;;;2.28;1.85;;;15.30;76.20;;;;;;5115722;27;20058;-64
2021/10/17 01:03:26;;;;;;;2.67;1.70;;;15.30;76.20;;;;;;5115106;28;20044;-60
2021/10/17 01:05:53;;;;;;;2.00;1.52;;;15.30;76.20;;;;;;5114786;27;20054;-67
2021/10/17 01:08:19;;;;;;;2.63;1.50;;;15.20;76.10;;;;;;5115098;28;20518;-66
2021/10/17 01:10:45;;;;;;;2.72;1.40;;;15.20;76.20;;;;;;5115384;28;20047;-68
2021/10/17 01:13:19;;;;;;;3.53;1.55;;;15.20;76.10;;;;;;5116459;27;20032;-61
2021/10/17 01:15:53;;;;;;;2.10;1.90;;;15.20;76.10;;;;;;5136085;27;20051;-67
2021/10/17 01:18:19;;;;;;;1.88;1.50;;;15.20;76.20;;;;;;5135192;27;20035;-59
2021/10/17 01:20:45;;;;;;;1.98;1.42;;;15.30;76.20;;;;;;5135568;27;20446;-68
2021/10/17 01:23:12;;;;;;;2.08;1.88;;;15.20;76.10;;;;;;5135878;27;20043;-66
2021/10/17 01:25:37;;;;;;;2.35;1.58;;;15.30;76.20;;;;;;5134944;27;20561;-67
2021/10/17 01:28:03;;;;;;;2.08;1.70;;;15.30;76.20;;;;;;5135459;27;20131;-63
2021/10/17 01:30:33;;;;;;;2.50;1.80;;;15.20;76.10;;;;;;5135284;27;20039;-63
2021/10/17 01:32:59;;;;;;;1.90;1.70;;;15.30;76.20;;;;;;5134884;27;20043;-66
2021/10/17 01:35:25;;;;;;;3.17;1.60;;;15.20;76.20;;;;;;5134817;27;20409;-64
2021/10/17 01:37:51;;;;;;;1.92;1.60;;;15.20;76.20;;;;;;5134988;27;20104;-66
2021/10/17 01:40:17;;;;;;;2.50;1.52;;;15.20;76.20;;;;;;5116610;27;20061;-72
2021/10/17 01:42:43;;;;;;;1.80;1.58;;;15.20;76.20;;;;;;5134741;27;20502;-72
2021/10/17 01:45:10;;;;;;;2.25;1.73;;;15.30;76.20;;;;;;5134048;27;20047;-72
2021/10/17 01:47:36;;;;;;;2.45;1.58;;;15.20;76.10;;;;;;5134046;27;20080;-73
2021/10/17 01:50:04;;;;;;;2.03;1.65;;;15.10;76.10;;;;;;5134910;27;20051;-72
2021/10/17 01:52:31;;;;;;;2.58;1.33;;;15.20;76.10;;;;;;5133869;27;20039;-73
2021/10/17 01:54:57;;;;;;;1.83;1.63;;;15.30;76.20;;;;;;5135141;27;20348;-72
2021/10/17 01:57:23;;;;;;;2.53;1.70;;;15.20;76.20;;;;;;5134795;27;20035;-72
2021/10/17 01:59:48;;;;;;;2.00;1.70;;;15.30;76.20;;;;;;5134833;27;20459;-68
2021/10/17 02:02:14;;;;;;;2.65;1.75;;;15.20;76.10;;;;;;5135099;27;20035;-73
2021/10/17 02:04:40;;;;;;;1.83;1.63;;;15.20;76.10;;;;;;5134832;27;20050;-72
2021/10/17 02:07:05;;;;;;;2.00;1.63;;;15.30;76.20;;;;;;5134193;27;20060;-72
2021/10/17 02:09:31;;;;;;;3.13;1.73;;;15.20;76.20;;;;;;5134458;27;20092;-71
2021/10/17 02:11:57;;;;;;;3.95;2.20;;;15.20;76.20;;;;;;5134529;27;20043;-71
2021/10/17 02:14:22;;;;;;;1.63;1.40;;;15.20;76.10;;;;;;5115656;27;20055;-72
2021/10/17 02:16:48;;;;;;;1.88;1.50;;;15.20;76.10;;;;;;5134884;27;20043;-72
2021/10/17 02:19:14;;;;;;;1.92;1.58;;;15.20;76.10;;;;;;5134276;27;20035;-72
2021/10/17 02:21:39;;;;;;;2.47;1.95;;;15.20;76.20;;;;;;5134251;27;20130;-72
2021/10/17 02:24:06;;;;;;;2.40;1.85;;;15.20;76.20;;;;;;5134516;27;20138;-72
2021/10/17 02:26:32;;;;;;;2.13;1.60;;;15.20;76.20;;;;;;5134529;27;20049;-72
2021/10/17 02:28:58;;;;;;;2.33;1.70;;;15.20;76.20;;;;;;5133893;27;20075;-72
2021/10/17 02:31:24;;;;;;;1.83;1.70;;;15.20;76.20;;;;;;5134205;27;20086;-73
2021/10/17 02:33:49;;;;;;;2.38;1.98;;;15.30;76.20;;;;;;5134487;27;20035;-65
2021/10/17 02:36:15;;;;;;;1.83;1.73;;;15.20;76.20;;;;;;5133617;27;20041;-61
2021/10/17 02:38:41;;;;;;;1.88;1.65;;;15.20;76.20;;;;;;5133699;27;20448;-64
2021/10/17 02:41:07;;;;;;;1.83;1.63;;;15.20;76.20;;;;;;5115521;27;20062;-68
2021/10/17 02:43:33;;;;;;;2.03;1.60;;;15.20;76.20;;;;;;5133933;27;20063;-63
2021/10/17 02:45:58;;;;;;;2.28;1.70;;;15.20;76.20;;;;;;5134263;27;20047;-64
2021/10/17 02:48:24;;;;;;;2.28;1.80;;;15.20;76.20;;;;;;5134071;27;20108;-72
2021/10/17 02:50:50;;;;;;;1.77;1.58;;;15.20;76.20;;;;;;5115574;27;20082;-67
2021/10/17 02:53:16;;;;;;;2.17;1.80;;;15.20;76.20;;;;;;5133955;27;20031;-68
2021/10/17 02:55:41;;;;;;;2.22;1.70;;;15.20;76.20;;;;;;5133824;27;20072;-66
2021/10/17 02:58:07;;;;;;;2.22;1.50;;;15.20;76.30;;;;;;5134573;27;20104;-66
2021/10/17 03:00:33;;;;;;;3.10;1.83;;;15.20;76.20;;;;;;5133610;27;20395;-62
2021/10/17 03:02:59;;;;;;;1.58;1.40;;;15.20;76.20;;;;;;5114796;27;20035;-62
2021/10/17 03:05:24;;;;;;;1.58;1.45;;;15.20;76.20;;;;;;5133868;27;20031;-65
2021/10/17 03:07:50;;;;;;;2.40;1.70;;;15.20;76.30;;;;;;5133604;27;20071;-65
2021/10/17 03:10:16;;;;;;;1.92;1.70;;;15.20;76.30;;;;;;5133294;27;20062;-64
2021/10/17 03:12:41;;;;;;;1.70;1.52;;;15.20;76.20;;;;;;5133649;27;20035;-61
2021/10/17 03:15:08;;;;;;;2.53;1.40;;;15.20;76.20;;;;;;5132878;27;20055;-65
2021/10/17 03:17:34;;;;;;;2.10;1.77;;;15.30;76.30;;;;;;5133855;27;20229;-63
2021/10/17 03:20:00;;;;;;;2.03;1.63;;;15.20;76.30;;;;;;5133637;27;20380;-63
2021/10/17 03:22:26;;;;;;;2.72;1.80;;;15.30;76.30;;;;;;5133207;27;20046;-60
2021/10/17 03:24:52;;;;;;;2.45;1.83;;;15.20;76.30;;;;;;5133030;27;20043;-64
2021/10/17 03:27:17;;;;;;;1.98;1.70;;;15.20;76.30;;;;;;5133697;27;20184;-67
2021/10/17 03:29:43;;;;;;;2.35;1.80;;;15.20;76.30;;;;;;5132970;27;20046;-64
2021/10/17 03:32:08;;;;;;;1.92;1.63;;;15.20;76.20;;;;;;5132851;27;20046;-66
2021/10/17 03:34:34;;;;;;;3.45;1.90;;;15.20;76.30;;;;;;5132896;27;20043;-65
2021/10/17 03:37:00;;;;;;;2.00;1.80;;;15.20;76.30;;;;;;5133021;27;20039;-63
2021/10/17 03:39:25;;;;;;;1.88;1.65;;;15.20;76.30;;;;;;5133015;27;20344;-63
2021/10/17 03:41:51;;;;;;;2.38;2.17;;;15.20;76.30;;;;;;5132174;27;20036;-62
2021/10/17 03:44:16;;;;;;;1.65;1.55;;;15.20;76.30;;;;;;5132889;27;20078;-63
2021/10/17 03:46:42;;;;;;;1.95;1.67;;;15.20;76.30;;;;;;5132802;27;20035;-62
2021/10/17 03:49:08;;;;;;;1.73;1.63;;;15.20;76.30;;;;;;5133603;28;20043;-63
2021/10/17 03:51:33;;;;;;;1.63;1.52;;;15.20;76.30;;;;;;5133497;28;20046;-66
2021/10/17 03:54:00;;;;;;;1.50;1.40;;;15.20;76.30;;;;;;5133177;28;20126;-66
2021/10/17 03:56:25;;;;;;;1.77;1.65;;;15.20;76.30;;;;;;5132029;28;20039;-66
2021/10/17 03:58:51;;;;;;;2.25;1.58;;;15.20;76.30;;;;;;5132976;28;20046;-64
2021/10/17 04:01:16;;;;;;;2.03;1.83;;;15.20;76.30;;;;;;5132784;28;20478;-71
2021/10/17 04:03:42;;;;;;;2.20;1.60;;;15.20;76.30;;;;;;5132560;28;20055;-72
2021/10/17 04:06:08;;;;;;;1.50;1.40;;;15.20;76.30;;;;;;5133369;28;20085;-73
2021/10/17 04:08:34;;;;;;;2.60;1.70;;;15.20;76.30;;;;;;5114319;28;20046;-72
2021/10/17 04:10:59;;;;;;;2.38;1.70;;;15.20;76.30;;;;;;5132403;28;20042;-72
2021/10/17 04:13:25;;;;;;;2.03;1.50;;;15.20;76.30;;;;;;5131688;28;20055;-72
2021/10/17 04:15:51;;;;;;;2.03;1.60;;;15.20;76.90;;;;;;5134726;27;20055;-73
2021/10/17 04:18:16;;;;;;;2.22;1.50;;;15.20;76.30;;;;;;5137073;27;20039;-71
2021/10/17 04:20:42;;;;;;;2.03;1.73;;;15.20;76.30;;;;;;5136654;27;20054;-72
2021/10/17 04:23:08;;;;;;;1.70;1.60;;;15.20;76.30;;;;;;5118192;27;20081;-73
2021/10/17 04:25:34;;;;;;;1.80;1.60;;;15.20;76.30;;;;;;5136795;27;20043;-72
2021/10/17 04:28:00;;;;;;;2.10;1.60;;;15.20;76.30;;;;;;5136443;27;20042;-72
2021/10/17 04:30:27;;;;;;;2.05;1.50;;;15.20;76.30;;;;;;5136626;27;20087;-73
2021/10/17 04:32:52;;;;;;;2.03;1.75;;;15.20;76.30;;;;;;5136431;27;20043;-72
2021/10/17 04:35:18;;;;;;;2.40;2.00;;;15.20;76.30;;;;;;5136004;27;20395;-72
2021/10/17 04:37:44;;;;;;;2.20;1.70;;;15.30;76.30;;;;;;5118291;27;20054;-72
2021/10/17 04:40:10;;;;;;;1.77;1.65;;;15.20;76.30;;;;;;5136594;27;20035;-72
2021/10/17 04:42:36;;;;;;;2.40;1.95;;;15.20;76.30;;;;;;5117834;27;20533;-72
2021/10/17 04:45:04;;;;;;;2.00;1.80;;;15.20;76.30;;;;;;5135909;27;20051;-70
2021/10/17 04:47:30;;;;;;;2.65;1.60;;;15.20;76.30;;;;;;5117302;27;20077;-73
2021/10/17 04:49:55;;;;;;;2.35;1.60;;;15.30;76.30;;;;;;5136193;27;20074;-71
2021/10/17 04:52:21;;;;;;;1.88;1.65;;;15.20;76.30;;;;;;5136675;27;20442;-72
2021/10/17 04:54:47;;;;;;;2.38;1.70;;;15.20;76.30;;;;;;5136140;27;20046;-70
2021/10/17 04:57:13;;;;;;;1.80;1.40;;;15.20;76.30;;;;;;5136226;27;20043;-72
2021/10/17 04:59:38;;;;;;;2.65;1.95;;;15.10;76.20;;;;;;5135481;27;20035;-72
2021/10/17 05:02:07;;;;;;;1.73;1.40;;;15.20;76.30;;;;;;5136529;27;20100;-72
2021/10/17 05:04:35;;;;;;;2.17;1.42;;;15.20;76.30;;;;;;5136294;27;20479;-67
2021/10/17 05:07:01;;;;;;;1.88;1.60;;;15.20;76.30;;;;;;5135725;27;20149;-72
2021/10/17 05:09:26;;;;;;;2.15;1.60;;;15.20;76.30;;;;;;5136219;27;20043;-69
2021/10/17 05:11:52;;;;;;;2.05;1.45;;;15.20;76.30;;;;;;5136044;27;20495;-71
2021/10/17 05:14:18;;;;;;;1.50;1.40;;;15.20;76.30;;;;;;5135637;27;20099;-70
2021/10/17 05:16:43;;;;;;;2.20;1.70;;;15.20;76.30;;;;;;5135291;27;20070;-71
2021/10/17 05:19:09;;;;;;;2.42;1.70;;;15.20;76.30;;;;;;5135507;27;20054;-70
2021/10/17 05:21:35;;;;;;;2.33;1.50;;;15.20;76.20;;;;;;5135822;27;20039;-69
2021/10/17 05:24:00;;;;;;;1.58;1.48;;;15.20;76.20;;;;;;5135930;27;20047;-71
2021/10/17 05:26:26;;;;;;;3.60;2.00;;;15.20;76.20;;;;;;5134055;27;20054;-67
2021/10/17 05:28:51;;;;;;;1.90;1.60;;;15.20;76.20;;;;;;5135560;27;20066;-71
2021/10/17 05:31:17;;;;;;;2.13;1.52;;;15.20;76.20;;;;;;5135154;27;20043;-68
2021/10/17 05:33:44;;;;;;;1.92;1.60;;;15.20;76.20;;;;;;5135359;27;20035;-71
2021/10/17 05:36:11;;;;;;;2.67;2.15;;;15.20;76.20;;;;;;5134923;27;20039;-69
2021/10/17 05:38:36;;;;;;;1.48;1.35;;;15.20;76.20;;;;;;5134910;27;20035;-62
2021/10/17 05:41:03;;;;;;;2.25;1.70;;;15.20;76.20;;;;;;5135291;27;20080;-62
2021/10/17 05:43:30;;;;;;;1.85;1.40;;;15.20;76.20;;;;;;5135424;27;20360;-67
2021/10/17 05:45:56;;;;;;;2.00;1.65;;;15.20;76.20;;;;;;5135002;27;20039;-64
2021/10/17 05:48:21;;;;;;;2.03;1.70;;;15.10;76.20;;;;;;5135007;27;20418;-64
2021/10/17 05:50:47;;;;;;;2.17;1.80;;;15.10;76.20;;;;;;5135046;27;20467;-61
2021/10/17 05:53:13;;;;;;;2.28;1.40;;;15.20;76.20;;;;;;5134651;27;20050;-68
2021/10/17 05:55:40;;;;;;;1.50;1.40;;;15.20;76.20;;;;;;5135320;27;20062;-64
2021/10/17 05:58:06;;;;;;;3.30;1.42;;;15.20;76.20;;;;;;5138246;27;20043;-64
2021/10/17 06:00:32;;;;;;;2.58;1.75;;;15.20;76.20;;;;;;5134710;27;20107;-63
2021/10/17 06:02:57;;;;;;;2.72;1.70;;;15.20;76.20;;;;;;5134530;27;20034;-64
2021/10/17 06:05:23;;;;;;;2.85;1.88;;;15.10;76.20;;;;;;5134324;27;20126;-65
2021/10/17 06:07:49;;;;;;;1.83;1.60;;;15.20;76.20;;;;;;5134765;27;20039;-68
2021/10/17 06:10:15;;;;;;;1.55;1.40;;;15.10;76.10;;;;;;5133241;27;20747;-64
2021/10/17 06:12:41;;;;;;;2.10;1.52;;;15.20;76.20;;;;;;5133655;27;20460;-61
2021/10/17 06:15:10;;;;;;;1.75;1.55;;;15.10;76.10;;;;;;5133629;27;20098;-59
2021/10/17 06:17:36;;;;;;;2.08;1.42;;;15.20;76.20;;;;;;5134222;27;20106;-59
2021/10/17 06:20:02;;;;;;;1.80;1.60;;;15.20;76.20;;;;;;5133862;27;20131;-60
2021/10/17 06:22:28;;;;;;;1.83;1.65;;;15.20;76.20;;;;;;5134525;27;20380;-60
2021/10/17 06:24:54;;;;;;;2.40;1.50;;;15.10;76.10;;;;;;5115520;27;20134;-60
2021/10/17 06:27:19;;;;;;;1.92;1.58;;;15.20;76.10;;;;;;5127113;27;20047;-70
2021/10/17 06:29:45;;;;;;;1.98;1.70;;;15.10;76.10;;;;;;5123796;27;20047;-71
2021/10/17 06:32:11;;;;;;;1.58;1.40;;;15.20;76.10;;;;;;5134354;27;20043;-72
2021/10/17 06:34:37;;;;;;;1.45;1.35;;;15.20;76.10;;;;;;5133095;27;20075;-72
2021/10/17 06:37:03;;;;;;;1.60;1.50;;;15.20;76.20;;;;;;5133742;27;20051;-72
2021/10/17 06:39:29;;;;;;;1.70;1.58;;;15.10;76.10;;;;;;5133508;27;20407;-72
2021/10/17 06:41:54;;;;;;;1.80;1.65;;;15.20;76.10;;;;;;5133897;27;20158;-71
2021/10/17 06:44:20;;;;;;;2.75;1.58;;;15.10;76.10;;;;;;5134298;27;20054;-69
2021/10/17 06:46:48;;;;;;;3.28;1.73;;;15.10;76.10;;;;;;5133996;27;20043;-71
2021/10/17 06:49:14;;;;;;;1.92;1.73;;;15.10;76.10;;;;;;5133649;27;20043;-69
2021/10/17 06:51:40;;;;;;;1.58;1.48;;;15.10;76.10;;;;;;5133881;27;20054;-71
2021/10/17 06:54:05;;;;;;;2.13;1.70;;;15.30;76.20;;;;;;5133919;27;20042;-72
2021/10/17 06:56:31;;;;;;;1.95;1.73;;;15.20;76.10;;;;;;5114790;27;20532;-72
2021/10/17 06:58:56;;;;;;;2.58;1.42;;;15.10;76.10;;;;;;5134281;27;20043;-66
2021/10/17 07:01:22;;;;;;;1.85;1.58;;;15.10;76.10;;;;;;5134039;27;20039;-69
2021/10/17 07:03:48;;;;;;;1.75;1.50;;;15.10;76.10;;;;;;5133514;27;20035;-70
2021/10/17 07:06:14;;;;;;;1.90;1.50;;;15.10;76.10;;;;;;5133766;27;20035;-72
2021/10/17 07:08:40;;;;;;;1.83;1.58;;;15.10;76.10;;;;;;5134320;27;20039;-70
2021/10/17 07:11:06;;;;;;;1.73;1.63;;;15.10;76.10;;;;;;5133203;27;20039;-71
2021/10/17 07:13:31;;;;;;;2.55;1.80;;;15.10;76.10;;;;;;5133231;27;20055;-68
2021/10/17 07:15:57;;;;;;;2.13;1.65;;;15.10;76.10;;;;;;5133172;27;20464;-70
2021/10/17 07:18:24;;;;;;;2.30;1.70;;;15.10;76.10;;;;;;5133691;27;20470;-69
2021/10/17 07:20:51;;;;;;;2.78;1.75;;;15.20;76.10;;;;;;5133425;27;20171;-70
2021/10/17 07:23:17;;;;;;;1.88;1.42;;;15.20;76.10;;;;;;5132686;27;20062;-68
2021/10/17 07:25:42;;;;;;;1.60;1.50;;;15.10;76.10;;;;;;5132953;27;20034;-67
2021/10/17 07:28:08;;;;;;;1.92;1.60;;;15.10;76.10;;;;;;5133348;27;20036;-61
2021/10/17 07:30:34;;;;;;;1.50;1.40;;;15.10;76.10;;;;;;5133189;27;20104;-68
2021/10/17 07:32:59;;;;;;;2.00;1.55;;;15.20;76.10;;;;;;5133168;27;20503;-68
2021/10/17 07:35:25;;;;;;;2.25;1.60;;;15.10;76.10;;;;;;5132678;27;20113;-68
2021/10/17 07:37:51;;;;;;;2.50;1.40;;;15.20;76.10;;;;;;5132732;27;20039;-67
2021/10/17 07:40:16;;;;;;;3.22;1.77;;;15.20;76.10;;;;;;5123867;27;20127;-66
2021/10/17 07:42:42;;;;;;;1.98;1.60;;;15.10;76.10;;;;;;5131824;27;20399;-65
2021/10/17 07:45:08;;;;;;;1.70;1.60;;;15.10;76.10;;;;;;5132897;27;20050;-67
2021/10/17 07:47:35;;;;;;;1.70;1.60;;;15.10;76.10;;;;;;5132853;27;20039;-66
2021/10/17 07:50:05;;;;;;;2.13;1.70;;;15.20;76.10;;;;;;5132506;27;20399;-64
2021/10/17 07:52:31;;;;;;;1.58;1.35;;;15.10;76.10;;;;;;5113611;28;20092;-63
2021/10/17 07:54:56;;;;;;;12.07;7.18;;;15.10;76.10;;;;;;5132460;28;20492;-62
2021/10/17 07:57:22;;;;;;;12.80;6.57;;;14.90;73.50;;;;;;5132779;28;20044;-65
2021/10/17 07:59:48;;;;;;;12.73;6.65;;;14.60;73.50;;;;;;5132711;28;20043;-61
2021/10/17 08:02:13;;;;;;;10.15;6.60;;;14.50;74.00;;;;;;5132917;28;20035;-65
2021/10/17 08:04:40;;;;;;;10.57;6.80;;;14.50;74.40;;;;;;5132758;28;20086;-64
2021/10/17 08:07:06;;;;;;;8.35;6.50;;;14.50;74.60;;;;;;5133162;28;20135;-66
2021/10/17 08:09:33;;;;;;;11.68;6.93;;;14.50;74.60;;;;;;5132672;28;20050;-66
2021/10/17 08:11:59;;;;;;;11.05;6.90;;;14.60;74.80;;;;;;5132690;28;20067;-64
2021/10/17 08:14:24;;;;;;;10.52;5.68;;;14.50;74.80;;;;;;5146501;27;20050;-65
2021/10/17 08:16:51;;;;;;;9.07;6.03;;;14.60;75.00;;;;;;5133063;28;20071;-64
2021/10/17 08:19:17;;;;;;;6.72;5.88;;;14.60;75.00;;;;;;5133118;28;20394;-64
2021/10/17 08:21:43;;;;;;;10.50;6.18;;;14.70;75.10;;;;;;5132960;28;20458;-65
2021/10/17 08:24:08;;;;;;;10.77;6.30;;;14.70;75.10;;;;;;5132487;28;20089;-66
2021/10/17 08:26:34;;;;;;;10.10;5.32;;;14.80;75.20;;;;;;5132468;28;20049;-66
2021/10/17 08:29:00;;;;;;;10.15;5.93;;;14.80;75.30;;;;;;5132330;28;20052;-64
2021/10/17 08:31:26;;;;;;;11.63;6.15;;;14.80;75.30;;;;;;5132777;28;20205;-61
2021/10/17 08:33:51;;;;;;;11.50;6.00;;;14.80;75.30;;;;;;5132613;28;20043;-66
2021/10/17 08:36:17;;;;;;;8.30;5.32;;;14.80;75.30;;;;;;5132474;28;20089;-58
2021/10/17 08:38:43;;;;;;;7.07;5.15;;;14.80;75.30;;;;;;5132734;28;20115;-61
2021/10/17 08:41:09;;;;;;;7.88;5.60;;;14.90;75.40;;;;;;5132304;28;20039;-61
2021/10/17 08:43:35;;;;;;;8.80;5.53;;;14.90;75.40;;;;;;5132588;28;20127;-60
2021/10/17 08:46:01;;;;;;;9.73;5.72;;;14.90;75.40;;;;;;5131955;28;20031;-62
2021/10/17 08:48:31;;;;;;;7.35;5.00;;;14.90;75.40;;;;;;5132905;28;20043;-60
2021/10/17 08:50:57;;;;;;;6.10;5.18;;;14.90;75.40;;;;;;5132768;28;20046;-60
2021/10/17 08:53:23;;;;;;;6.68;4.60;;;14.90;75.40;;;;;;5132603;28;20475;-67
2021/10/17 08:55:49;;;;;;;7.32;4.53;;;14.90;75.40;;;;;;5131975;28;20039;-65
2021/10/17 08:58:14;;;;;;;8.10;5.45;;;15.00;75.40;;;;;;5132672;28;20039;-66
2021/10/17 09:00:40;;;;;;;6.85;4.97;;;14.90;75.40;;;;;;5133118;27;20574;-66
2021/10/17 09:03:06;;;;;;;6.85;5.30;;;14.90;75.40;;;;;;5136588;27;20095;-65
2021/10/17 09:05:33;;;;;;;7.70;4.80;;;15.00;75.50;;;;;;5136594;27;20555;-63
2021/10/17 09:07:59;;;;;;;6.43;4.53;;;15.00;75.50;;;;;;5135999;27;20465;-63
2021/10/17 09:10:25;;;;;;;8.52;4.82;;;14.90;75.40;;;;;;5136597;27;20070;-65
2021/10/17 09:12:51;;;;;;;7.75;5.22;;;15.00;75.50;;;;;;5136468;27;20039;-64
2021/10/17 09:15:30;;;;;;;6.22;4.50;;;15.00;75.50;;;;;;5136177;27;20054;-61
2021/10/17 09:18:08;;;;;;;6.13;4.57;;;15.00;75.50;;;;;;5135779;27;20467;-64
2021/10/17 09:20:36;;;;;;;6.82;4.30;;;15.00;75.50;;;;;;5136256;27;20458;-63
2021/10/17 09:23:06;;;;;;;7.00;4.47;;;15.00;75.50;;;;;;5135725;27;20471;-65
2021/10/17 09:25:33;;;;;;;6.82;4.35;;;15.00;75.50;;;;;;5136155;27;20043;-65
2021/10/17 09:27:59;;;;;;;5.75;4.00;;;15.00;75.50;;;;;;5134843;27;20062;-64
2021/10/17 09:30:25;;;;;;;6.20;4.18;;;15.00;75.50;;;;;;5135940;27;20051;-63
2021/10/17 09:32:51;;;;;;;5.30;4.25;;;15.00;75.50;;;;;;5135887;27;20043;-61
2021/10/17 09:35:17;;;;;;;5.65;4.05;;;15.00;75.50;;;;;;5135747;27;20543;-63
2021/10/17 09:37:44;;;;;;;5.70;3.95;;;15.00;75.60;;;;;;5135649;27;20394;-64
2021/10/17 09:40:21;;;;;;;4.70;4.22;;;15.00;75.60;;;;;;5116934;27;20479;-59
2021/10/17 09:43:10;;;;;;;6.75;4.35;;;15.00;75.60;;;;;;5135399;27;20046;-58
2021/10/17 09:45:36;;;;;;;5.63;3.90;;;15.00;75.50;;;;;;5135381;27;20062;-65
2021/10/17 09:48:03;;;;;;;6.13;3.63;;;15.00;75.60;;;;;;5135417;27;20115;-59
2021/10/17 09:50:29;;;;;;;4.65;4.03;;;15.00;75.60;;;;;;5135216;27;20100;-57
2021/10/17 09:52:57;;;;;;;5.65;3.97;;;15.00;75.60;;;;;;5135389;27;20039;-61
2021/10/17 09:55:23;;;;;;;6.38;4.10;;;15.00;75.60;;;;;;5135011;27;20070;-60
2021/10/17 09:57:50;;;;;;;4.10;3.35;;;15.10;75.70;;;;;;5135020;27;20086;-59
2021/10/17 10:00:16;;;;;;;4.70;3.83;;;15.00;75.60;;;;;;5115720;27;20047;-60
2021/10/17 10:02:45;;;;;;;4.95;3.90;;;15.00;75.60;;;;;;5135150;27;20042;-59
2021/10/17 10:05:13;;;;;;;5.57;3.80;;;15.00;75.60;;;;;;5135230;27;20039;-59
2021/10/17 10:07:40;;;;;;;6.15;3.40;;;15.00;75.70;;;;;;5135286;27;20481;-58
2021/10/17 10:10:07;;;;;;;5.20;3.88;;;15.00;75.70;;;;;;5135001;27;20046;-60
2021/10/17 10:12:34;;;;;;;4.10;3.40;;;15.00;75.70;;;;;;5115206;27;20573;-60
2021/10/17 10:15:00;;;;;;;4.32;3.20;;;15.00;75.70;;;;;;5134454;27;20063;-63
2021/10/17 10:17:29;;;;;;;4.25;3.33;;;15.00;75.60;;;;;;5134674;27;20043;-62
2021/10/17 10:19:58;;;;;;;6.05;4.05;;;15.00;75.70;;;;;;5134611;27;20039;-61
2021/10/17 10:22:25;;;;;;;5.07;3.38;;;15.00;75.70;;;;;;5115875;27;20043;-60
2021/10/17 10:24:53;;;;;;;4.05;3.30;;;15.00;75.70;;;;;;5134458;27;20074;-60
2021/10/17 10:27:20;;;;;;;5.00;3.22;;;15.00;75.70;;;;;;5134673;27;20119;-61
2021/10/17 10:29:46;;;;;;;4.30;3.72;;;15.10;75.80;;;;;;5134670;27;20074;-57
2021/10/17 10:32:25;;;;;;;5.53;3.60;;;15.10;75.70;;;;;;5133559;27;20066;-61
2021/10/17 10:34:52;;;;;;;5.32;3.75;;;15.10;76.00;;;;;;5134358;27;20403;-61
2021/10/17 10:37:27;;;;;;;3.78;3.10;;;15.00;75.70;;;;;;5134371;27;20371;-59
2021/10/17 10:40:05;;;;;;;4.65;3.15;;;15.00;75.70;;;;;;5115743;27;20092;-61
2021/10/17 10:42:34;;;;;;;4.38;3.42;;;15.00;75.70;;;;;;5115212;27;20051;-57
2021/10/17 10:45:22;;;;;;;4.22;3.15;;;15.00;75.70;;;;;;5113601;28;20440;-61
2021/10/17 10:48:10;;;;;;;4.55;3.10;;;15.10;75.70;;;;;;5112998;28;20047;-59
2021/10/17 10:50:53;;;;;;;3.80;3.28;;;15.00;75.60;;;;;;5113388;28;20412;-60
2021/10/17 10:53:51;;;;;;;3.90;3.05;;;15.00;75.70;;;;;;5115906;27;20108;-59
2021/10/17 10:56:43;;;;;;;4.38;3.13;;;15.00;75.70;;;;;;5133908;27;20047;-62
2021/10/17 10:59:09;;;;;;;3.65;2.97;;;15.10;75.70;;;;;;5134194;27;20047;-60
2021/10/17 11:01:50;;;;;;;4.20;3.08;;;15.00;76.40;;;;;;5133810;27;20080;-61
2021/10/17 11:04:37;;;;;;;4.68;3.05;;;15.00;75.70;;;;;;5133117;27;20035;-60
2021/10/17 11:07:22;;;;;;;3.70;3.20;;;15.00;75.70;;;;;;5133962;27;20039;-59
2021/10/17 11:09:49;;;;;;;3.45;2.95;;;15.10;75.70;;;;;;5133823;27;20100;-58
2021/10/17 11:12:46;;;;;;;5.13;2.92;;;15.10;75.80;;;;;;5134074;27;20122;-61
2021/10/17 11:15:15;;;;;;;3.60;2.88;;;15.00;75.70;;;;;;5133281;27;20154;-61
2021/10/17 11:17:53;;;;;;;4.03;2.92;;;15.10;75.80;;;;;;5133544;27;20153;-66
2021/10/17 11:20:21;;;;;;;4.63;2.95;;;15.10;75.80;;;;;;5133093;27;20486;-64
2021/10/17 11:22:48;;;;;;;4.03;2.92;;;15.10;75.80;;;;;;5133452;27;20084;-65
2021/10/17 11:25:16;;;;;;;2.78;2.50;;;15.10;75.80;;;;;;5133260;27;20178;-64
2021/10/17 11:27:42;;;;;;;3.72;2.80;;;15.10;75.80;;;;;;5133710;27;20035;-64
2021/10/17 11:30:34;;;;;;;3.80;3.17;;;15.00;75.70;;;;;;5133234;27;20103;-65
2021/10/17 11:33:04;;;;;;;3.25;2.70;;;15.10;75.70;;;;;;5133538;27;20031;-65
2021/10/17 11:35:31;;;;;;;3.40;2.97;;;15.10;75.80;;;;;;5132973;27;20043;-66
2021/10/17 11:38:01;;;;;;;4.35;3.00;;;15.10;76.50;;;;;;5133084;27;20034;-66
2021/10/17 11:40:27;;;;;;;2.90;2.30;;;15.00;75.80;;;;;;5133304;27;20483;-67
2021/10/17 11:42:59;;;;;;;3.17;2.85;;;15.10;75.80;;;;;;5133098;27;20087;-63
2021/10/17 11:45:45;;;;;;;4.47;2.63;;;15.10;75.80;;;;;;5133158;27;20441;-66
2021/10/17 11:48:15;;;;;;;3.22;2.55;;;15.10;75.70;;;;;;5132898;27;20039;-59
2021/10/17 11:50:46;;;;;;;3.47;2.17;;;15.10;75.80;;;;;;5132778;27;20065;-60
2021/10/17 11:53:15;;;;;;;4.32;3.08;;;15.10;75.80;;;;;;5133111;27;20483;-58
2021/10/17 11:55:47;;;;;;;3.80;3.00;;;15.10;75.80;;;;;;5148973;27;20043;-61
2021/10/17 11:58:23;;;;;;;3.47;2.85;;;15.10;75.80;;;;;;5132701;28;20043;-60
2021/10/17 12:00:51;;;;;;;4.10;2.45;;;15.10;75.80;;;;;;5133449;28;20039;-60
2021/10/17 12:03:19;;;;;;;2.58;2.30;;;15.10;75.80;;;;;;5133322;28;20050;-59
2021/10/17 12:05:45;;;;;;;3.60;2.47;;;15.10;75.80;;;;;;5132899;28;20039;-60
2021/10/17 12:08:33;;;;;;;3.53;2.83;;;15.10;75.80;;;;;;5132646;28;20406;-61
2021/10/17 12:11:10;;;;;;;2.50;2.28;;;15.10;75.70;;;;;;5132808;28;20055;-61
2021/10/17 12:13:44;;;;;;;2.50;2.30;;;15.10;75.80;;;;;;5133391;28;20406;-58
2021/10/17 12:16:20;;;;;;;2.70;2.40;;;15.10;75.80;;;;;;5132988;28;20160;-59
2021/10/17 12:18:49;;;;;;;2.67;2.25;;;15.10;75.80;;;;;;5133025;28;20436;-61
2021/10/17 12:21:21;;;;;;;3.00;2.47;;;15.10;75.80;;;;;;5133647;28;20227;-62
2021/10/17 12:23:48;;;;;;;2.50;2.30;;;15.10;75.70;;;;;;5133152;28;20095;-63
2021/10/17 12:26:25;;;;;;;2.65;2.20;;;15.10;75.80;;;;;;5132953;28;20039;-60
2021/10/17 12:29:12;;;;;;;4.00;2.50;;;15.10;75.80;;;;;;5133114;28;20043;-61
2021/10/17 12:31:43;;;;;;;2.63;2.40;;;15.10;75.70;;;;;;5094380;28;20444;-66
2021/10/17 12:34:09;;;;;;;2.40;2.17;;;15.10;75.80;;;;;;5112689;28;20039;-66
2021/10/17 12:36:37;;;;;;;3.97;2.67;;;15.10;75.80;;;;;;5114401;28;20151;-66
2021/10/17 12:39:06;;;;;;;2.47;2.17;;;15.10;75.80;;;;;;5115651;28;20039;-66
2021/10/17 12:41:33;;;;;;;3.40;2.75;;;15.10;75.80;;;;;;5132991;27;20043;-67
2021/10/17 12:44:12;;;;;;;2.40;2.20;;;15.20;75.80;;;;;;5118165;27;20050;-67
2021/10/17 12:46:38;;;;;;;2.75;2.22;;;15.10;75.80;;;;;;5136946;27;20153;-66